»·PEaware :: N71PC KTUS-KPHX

N71PC :: KTUS-KPHX

FLIGHT INFORMATION

Flight Status: Arrived
Operator: Privately registered:
United States
More flights under this callsign
Pilot: James B. (27133)
Aircraft: BEECH AIRCRAFT BARON
(BE58)
More flights by this aircraft type
Origin: KTUS Tucson Intl
United States
Destination: KPHX Phoenix Sky Harbor Intl
United States
More flights between these airports :: More routes between these airports
Route: +TUS8 TUS V105 PXR
File this flight plan on PilotEdge
Remarks:
Altitude:
(Current/Filed)
10,000ft
Speed:
(Current/Filed)
210kts
Departed: 03-Dec-19 07:42 PM
Arrived: 03-Dec-19 08:29 PM
Distance/Time
Traveled:
96nm/0:47
Distance/Time
To Go:
Arrived

Flight Plot

Page will automatically refresh every two minutes.


Map Options




Map Legend


Flown Route
Filed Route
Departure Airport
Arrival Airport
Navaid (VOR, NDB)
Fix

Horizontal Profiles

Position Reports

Time Latitude Longitude Heading Altitude Ground
Speed
03-Dec-19 19:10 32.123038 -110.956634 317 2646ft 0kts
03-Dec-19 19:11 32.123038 -110.956634 317 2646ft 0kts
03-Dec-19 19:12 32.123038 -110.956634 317 2646ft 0kts
03-Dec-19 19:13 32.123038 -110.956634 317 2646ft 0kts
03-Dec-19 19:14 32.123038 -110.956634 317 2646ft 0kts
03-Dec-19 19:15 32.123038 -110.956634 317 2646ft 0kts
03-Dec-19 19:16 32.123038 -110.956634 317 2646ft 0kts
03-Dec-19 19:17 32.123038 -110.956634 317 2646ft 0kts
03-Dec-19 19:18 32.123038 -110.956634 317 2646ft 0kts
03-Dec-19 19:19 32.123038 -110.956634 317 2646ft 0kts
03-Dec-19 19:20 32.123038 -110.956634 317 2646ft 0kts
03-Dec-19 19:21 32.123038 -110.956634 317 2646ft 0kts
03-Dec-19 19:22 32.123038 -110.956634 317 2646ft 0kts
03-Dec-19 19:23 32.123038 -110.956634 317 2646ft 0kts
03-Dec-19 19:24 32.123038 -110.956634 317 2646ft 0kts
03-Dec-19 19:25 32.123038 -110.956634 317 2646ft 0kts
03-Dec-19 19:26 32.123038 -110.956634 317 2646ft 0kts
03-Dec-19 19:27 32.123038 -110.956634 317 2646ft 0kts
03-Dec-19 19:28 32.123038 -110.956634 317 2646ft 0kts
03-Dec-19 19:29 32.123038 -110.956634 317 2646ft 0kts
03-Dec-19 19:30 32.123038 -110.956634 317 2646ft 0kts
03-Dec-19 19:31 32.123038 -110.956634 317 2646ft 0kts
03-Dec-19 19:32 32.123038 -110.956634 317 2646ft 0kts
03-Dec-19 19:33 32.123237 -110.956231 108 2646ft 17kts
03-Dec-19 19:34 32.125737 -110.955053 314 2646ft 19kts
03-Dec-19 19:35 32.129563 -110.955273 81 2646ft 18kts
03-Dec-19 19:36 32.128292 -110.952158 138 2646ft 9kts
03-Dec-19 19:37 32.126689 -110.950254 135 2646ft 10kts
03-Dec-19 19:38 32.125921 -110.949884 178 2646ft 0kts
03-Dec-19 19:39 32.125112 -110.949827 163 2646ft 10kts
03-Dec-19 19:40 32.123027 -110.947546 135 2646ft 0kts
03-Dec-19 19:41 32.109257 -110.930433 140 2976ft 102kts
03-Dec-19 19:42 32.079777 -110.910269 199 3626ft 134kts
03-Dec-19 19:43 32.086326 -110.940041 322 4757ft 114kts
03-Dec-19 19:44 32.110166 -110.960565 322 5801ft 99kts
03-Dec-19 19:45 32.129549 -110.984253 303 6612ft 105kts
03-Dec-19 19:46 32.145651 -111.015675 300 7459ft 116kts
03-Dec-19 19:47 32.156556 -111.037484 299 7993ft 118kts
03-Dec-19 19:48 32.168265 -111.060934 299 8546ft 118kts
03-Dec-19 19:49 32.184633 -111.093737 297 9322ft 113kts
03-Dec-19 19:50 32.200212 -111.125018 296 9993ft 114kts
03-Dec-19 19:51 32.219506 -111.163833 297 10016ft 156kts
03-Dec-19 19:52 32.242821 -111.210646 298 10007ft 171kts
03-Dec-19 19:53 32.267140 -111.259550 298 10014ft 174kts
03-Dec-19 19:54 32.291363 -111.308342 298 10011ft 171kts
03-Dec-19 19:55 32.315420 -111.356886 298 10012ft 170kts
03-Dec-19 19:56 32.339386 -111.405314 297 10011ft 170kts
03-Dec-19 19:57 32.361251 -111.449551 297 10010ft 170kts
03-Dec-19 19:58 32.387699 -111.495773 316 10012ft 172kts
03-Dec-19 19:59 32.426394 -111.529690 322 10008ft 173kts
03-Dec-19 20:00 32.466041 -111.562304 323 10006ft 173kts
03-Dec-19 20:01 32.505827 -111.594966 323 9990ft 174kts
03-Dec-19 20:02 32.545667 -111.627709 323 9987ft 174kts
03-Dec-19 20:03 32.585415 -111.660388 323 9979ft 174kts
03-Dec-19 20:04 32.625261 -111.693198 323 9976ft 174kts
03-Dec-19 20:05 32.664964 -111.725929 323 9975ft 174kts
03-Dec-19 20:06 32.704772 -111.758784 323 9974ft 174kts
03-Dec-19 20:07 32.704827 -111.758830 323 9974ft 174kts
03-Dec-19 20:08 32.749609 -111.761385 10 10000ft 174kts
03-Dec-19 20:09 32.797395 -111.749638 10 10004ft 176kts
03-Dec-19 20:10 32.845566 -111.737782 11 10000ft 177kts
03-Dec-19 20:11 32.893939 -111.726034 10 10001ft 178kts
03-Dec-19 20:12 32.942852 -111.720579 351 10003ft 177kts
03-Dec-19 20:13 32.991589 -111.728404 350 10001ft 177kts
03-Dec-19 20:14 33.040612 -111.736381 350 9996ft 177kts
03-Dec-19 20:15 33.089573 -111.744374 350 9987ft 177kts
03-Dec-19 20:16 33.137867 -111.752314 351 9572ft 169kts
03-Dec-19 20:17 33.184186 -111.760938 351 8575ft 167kts
03-Dec-19 20:18 33.228997 -111.775683 341 7583ft 168kts
03-Dec-19 20:19 33.272742 -111.793693 341 6529ft 163kts
03-Dec-19 20:20 33.315509 -111.811386 341 5132ft 163kts
03-Dec-19 20:21 33.358377 -111.829214 341 3738ft 163kts
03-Dec-19 20:22 33.399309 -111.846328 341 2951ft 138kts
03-Dec-19 20:23 33.424219 -111.872001 288 2963ft 120kts
03-Dec-19 20:24 33.428668 -111.910708 271 2763ft 113kts
03-Dec-19 20:25 33.428127 -111.947797 270 2242ft 104kts
03-Dec-19 20:26 33.428579 -111.981596 270 1676ft 106kts
03-Dec-19 20:27 33.429009 -112.005103 270 1138ft 77kts
03-Dec-19 20:28 33.428765 -112.013554 267 1138ft 29kts
03-Dec-19 20:29 33.428129 -112.016549 179 1138ft 6kts

Navigation Log

Ident Type
Flight plan parsing failed, navigation log unavailable